sensor_id;sensor_type;location;lat;lon;timestamp;P1;durP1;ratioP1;P2;durP2;ratioP2
57605;SDS011;43430;48.204;11.556;2022-10-15T00:01:35;4.07;;;0.73;;
57605;SDS011;43430;48.204;11.556;2022-10-15T00:04:01;4.63;;;0.55;;
57605;SDS011;43430;48.204;11.556;2022-10-15T00:06:26;2.33;;;0.63;;
57605;SDS011;43430;48.204;11.556;2022-10-15T00:08:52;2.75;;;0.52;;
57605;SDS011;43430;48.204;11.556;2022-10-15T00:11:18;2.75;;;0.50;;
57605;SDS011;43430;48.204;11.556;2022-10-15T00:13:45;1.55;;;0.30;;
57605;SDS011;43430;48.204;11.556;2022-10-15T00:16:12;2.38;;;0.50;;
57605;SDS011;43430;48.204;11.556;2022-10-15T00:18:43;1.92;;;0.47;;
57605;SDS011;43430;48.204;11.556;2022-10-15T00:21:10;3.63;;;0.60;;
57605;SDS011;43430;48.204;11.556;2022-10-15T00:23:38;4.60;;;0.70;;
57605;SDS011;43430;48.204;11.556;2022-10-15T00:28:33;2.58;;;0.70;;
57605;SDS011;43430;48.204;11.556;2022-10-15T00:31:17;1.83;;;0.50;;
57605;SDS011;43430;48.204;11.556;2022-10-15T00:33:47;2.80;;;0.60;;
57605;SDS011;43430;48.204;11.556;2022-10-15T00:36:15;2.90;;;0.60;;
57605;SDS011;43430;48.204;11.556;2022-10-15T00:38:43;2.15;;;0.40;;
57605;SDS011;43430;48.204;11.556;2022-10-15T00:41:19;3.17;;;0.50;;
57605;SDS011;43430;48.204;11.556;2022-10-15T00:43:53;2.08;;;0.52;;
57605;SDS011;43430;48.204;11.556;2022-10-15T00:48:50;3.50;;;0.50;;
57605;SDS011;43430;48.204;11.556;2022-10-15T00:51:19;3.70;;;0.80;;
57605;SDS011;43430;48.204;11.556;2022-10-15T00:53:47;4.18;;;0.60;;
57605;SDS011;43430;48.204;11.556;2022-10-15T00:56:15;2.28;;;0.40;;
57605;SDS011;43430;48.204;11.556;2022-10-15T00:58:44;1.55;;;0.40;;
57605;SDS011;43430;48.204;11.556;2022-10-15T01:01:10;2.13;;;0.43;;
57605;SDS011;43430;48.204;11.556;2022-10-15T01:03:37;3.80;;;0.50;;
57605;SDS011;43430;48.204;11.556;2022-10-15T01:06:02;2.40;;;0.50;;
57605;SDS011;43430;48.204;11.556;2022-10-15T01:08:28;2.13;;;0.43;;
57605;SDS011;43430;48.204;11.556;2022-10-15T01:11:12;1.17;;;0.50;;
57605;SDS011;43430;48.204;11.556;2022-10-15T01:13:57;1.83;;;0.40;;
57605;SDS011;43430;48.204;11.556;2022-10-15T01:16:31;1.70;;;0.30;;
57605;SDS011;43430;48.204;11.556;2022-10-15T01:27:23;1.50;;;0.40;;
57605;SDS011;43430;48.204;11.556;2022-10-15T01:32:49;2.47;;;0.47;;
57605;SDS011;43430;48.204;11.556;2022-10-15T01:35:21;1.40;;;0.20;;
57605;SDS011;43430;48.204;11.556;2022-10-15T01:38:02;2.55;;;0.40;;
57605;SDS011;43430;48.204;11.556;2022-10-15T01:40:56;1.08;;;0.32;;
57605;SDS011;43430;48.204;11.556;2022-10-15T01:43:38;1.27;;;0.30;;
57605;SDS011;43430;48.204;11.556;2022-10-15T01:46:10;1.42;;;0.30;;
57605;SDS011;43430;48.204;11.556;2022-10-15T01:48:42;3.25;;;0.40;;
57605;SDS011;43430;48.204;11.556;2022-10-15T01:51:08;1.80;;;0.30;;
57605;SDS011;43430;48.204;11.556;2022-10-15T01:53:35;1.20;;;0.30;;
57605;SDS011;43430;48.204;11.556;2022-10-15T01:56:08;2.13;;;0.40;;
57605;SDS011;43430;48.204;11.556;2022-10-15T01:58:37;1.55;;;0.47;;
57605;SDS011;43430;48.204;11.556;2022-10-15T02:01:06;1.58;;;0.45;;
57605;SDS011;43430;48.204;11.556;2022-10-15T02:03:31;2.15;;;0.20;;
57605;SDS011;43430;48.204;11.556;2022-10-15T02:06:01;3.20;;;0.35;;
57605;SDS011;43430;48.204;11.556;2022-10-15T02:08:43;2.20;;;0.40;;
57605;SDS011;43430;48.204;11.556;2022-10-15T02:11:17;1.83;;;0.40;;
57605;SDS011;43430;48.204;11.556;2022-10-15T02:16:38;1.75;;;0.40;;
57605;SDS011;43430;48.204;11.556;2022-10-15T02:19:14;1.08;;;0.30;;
57605;SDS011;43430;48.204;11.556;2022-10-15T02:24:36;3.42;;;0.50;;
57605;SDS011;43430;48.204;11.556;2022-10-15T02:27:08;2.50;;;0.40;;
57605;SDS011;43430;48.204;11.556;2022-10-15T02:29:36;2.42;;;0.32;;
57605;SDS011;43430;48.204;11.556;2022-10-15T02:32:04;1.05;;;0.30;;
57605;SDS011;43430;48.204;11.556;2022-10-15T02:34:31;1.88;;;0.40;;
57605;SDS011;43430;48.204;11.556;2022-10-15T02:36:58;2.97;;;0.40;;
57605;SDS011;43430;48.204;11.556;2022-10-15T02:39:27;1.70;;;0.20;;
57605;SDS011;43430;48.204;11.556;2022-10-15T02:41:53;2.80;;;0.40;;
57605;SDS011;43430;48.204;11.556;2022-10-15T02:44:20;1.45;;;0.20;;
57605;SDS011;43430;48.204;11.556;2022-10-15T02:46:46;4.50;;;0.40;;
57605;SDS011;43430;48.204;11.556;2022-10-15T02:49:11;3.63;;;0.22;;
57605;SDS011;43430;48.204;11.556;2022-10-15T02:51:36;1.38;;;0.32;;
57605;SDS011;43430;48.204;11.556;2022-10-15T02:54:02;1.17;;;0.30;;
57605;SDS011;43430;48.204;11.556;2022-10-15T02:56:30;0.98;;;0.30;;
57605;SDS011;43430;48.204;11.556;2022-10-15T02:58:55;1.58;;;0.20;;
57605;SDS011;43430;48.204;11.556;2022-10-15T03:01:20;1.88;;;0.52;;
57605;SDS011;43430;48.204;11.556;2022-10-15T03:03:46;0.88;;;0.20;;
57605;SDS011;43430;48.204;11.556;2022-10-15T03:06:11;0.90;;;0.20;;
57605;SDS011;43430;48.204;11.556;2022-10-15T03:08:36;1.42;;;0.32;;
57605;SDS011;43430;48.204;11.556;2022-10-15T03:11:02;0.85;;;0.20;;
57605;SDS011;43430;48.204;11.556;2022-10-15T03:13:27;1.48;;;0.30;;
57605;SDS011;43430;48.204;11.556;2022-10-15T03:15:53;0.95;;;0.30;;
57605;SDS011;43430;48.204;11.556;2022-10-15T03:18:19;1.08;;;0.22;;
57605;SDS011;43430;48.204;11.556;2022-10-15T03:20:44;1.38;;;0.20;;
57605;SDS011;43430;48.204;11.556;2022-10-15T03:23:17;4.78;;;0.22;;
57605;SDS011;43430;48.204;11.556;2022-10-15T03:25:42;2.25;;;0.20;;
57605;SDS011;43430;48.204;11.556;2022-10-15T03:28:08;2.28;;;0.20;;
57605;SDS011;43430;48.204;11.556;2022-10-15T03:30:33;1.73;;;0.20;;
57605;SDS011;43430;48.204;11.556;2022-10-15T03:32:58;1.30;;;0.38;;
57605;SDS011;43430;48.204;11.556;2022-10-15T03:35:24;0.82;;;0.20;;
57605;SDS011;43430;48.204;11.556;2022-10-15T03:37:49;1.27;;;0.30;;
57605;SDS011;43430;48.204;11.556;2022-10-15T03:40:14;1.13;;;0.22;;
57605;SDS011;43430;48.204;11.556;2022-10-15T03:42:40;4.28;;;0.40;;
57605;SDS011;43430;48.204;11.556;2022-10-15T03:45:05;0.95;;;0.10;;
57605;SDS011;43430;48.204;11.556;2022-10-15T03:47:31;2.35;;;0.50;;
57605;SDS011;43430;48.204;11.556;2022-10-15T03:49:56;2.75;;;0.20;;
57605;SDS011;43430;48.204;11.556;2022-10-15T03:52:22;1.40;;;0.30;;
57605;SDS011;43430;48.204;11.556;2022-10-15T03:54:47;1.05;;;0.28;;
57605;SDS011;43430;48.204;11.556;2022-10-15T03:57:12;1.55;;;0.20;;
57605;SDS011;43430;48.204;11.556;2022-10-15T03:59:38;0.85;;;0.30;;
57605;SDS011;43430;48.204;11.556;2022-10-15T04:02:03;0.88;;;0.20;;
57605;SDS011;43430;48.204;11.556;2022-10-15T04:04:28;0.93;;;0.30;;
57605;SDS011;43430;48.204;11.556;2022-10-15T04:06:54;1.52;;;0.20;;
57605;SDS011;43430;48.204;11.556;2022-10-15T04:09:19;0.98;;;0.20;;
57605;SDS011;43430;48.204;11.556;2022-10-15T04:11:44;0.93;;;0.20;;
57605;SDS011;43430;48.204;11.556;2022-10-15T04:14:10;0.75;;;0.10;;
57605;SDS011;43430;48.204;11.556;2022-10-15T04:16:35;0.88;;;0.10;;
57605;SDS011;43430;48.204;11.556;2022-10-15T04:19:00;3.03;;;0.25;;
57605;SDS011;43430;48.204;11.556;2022-10-15T04:21:26;1.40;;;0.10;;
57605;SDS011;43430;48.204;11.556;2022-10-15T04:23:51;2.28;;;0.20;;
57605;SDS011;43430;48.204;11.556;2022-10-15T04:26:16;1.63;;;0.20;;
57605;SDS011;43430;48.204;11.556;2022-10-15T04:28:42;0.68;;;0.20;;
57605;SDS011;43430;48.204;11.556;2022-10-15T04:31:07;1.08;;;0.20;;
57605;SDS011;43430;48.204;11.556;2022-10-15T04:33:33;0.80;;;0.20;;
57605;SDS011;43430;48.204;11.556;2022-10-15T04:36:03;0.95;;;0.20;;
57605;SDS011;43430;48.204;11.556;2022-10-15T04:38:31;0.40;;;0.10;;
57605;SDS011;43430;48.204;11.556;2022-10-15T04:40:57;0.70;;;0.10;;
57605;SDS011;43430;48.204;11.556;2022-10-15T04:43:24;0.32;;;0.10;;
57605;SDS011;43430;48.204;11.556;2022-10-15T04:45:49;0.65;;;0.10;;
57605;SDS011;43430;48.204;11.556;2022-10-15T04:48:15;0.45;;;0.10;;
57605;SDS011;43430;48.204;11.556;2022-10-15T04:50:40;1.15;;;0.20;;
57605;SDS011;43430;48.204;11.556;2022-10-15T04:53:05;2.00;;;0.15;;
57605;SDS011;43430;48.204;11.556;2022-10-15T04:55:30;1.02;;;0.10;;
57605;SDS011;43430;48.204;11.556;2022-10-15T04:57:56;0.75;;;0.15;;
57605;SDS011;43430;48.204;11.556;2022-10-15T05:00:21;1.23;;;0.10;;
57605;SDS011;43430;48.204;11.556;2022-10-15T05:02:47;1.75;;;0.10;;
57605;SDS011;43430;48.204;11.556;2022-10-15T05:05:12;0.98;;;0.10;;
57605;SDS011;43430;48.204;11.556;2022-10-15T05:07:37;0.60;;;0.10;;
57605;SDS011;43430;48.204;11.556;2022-10-15T05:10:03;0.82;;;0.20;;
57605;SDS011;43430;48.204;11.556;2022-10-15T05:12:28;2.58;;;0.10;;
57605;SDS011;43430;48.204;11.556;2022-10-15T05:14:54;0.70;;;0.10;;
57605;SDS011;43430;48.204;11.556;2022-10-15T05:17:19;1.10;;;0.15;;
57605;SDS011;43430;48.204;11.556;2022-10-15T05:19:45;0.98;;;0.20;;
57605;SDS011;43430;48.204;11.556;2022-10-15T05:22:10;0.40;;;0.10;;
57605;SDS011;43430;48.204;11.556;2022-10-15T05:24:35;0.40;;;0.10;;
57605;SDS011;43430;48.204;11.556;2022-10-15T05:27:01;0.30;;;0.10;;
57605;SDS011;43430;48.204;11.556;2022-10-15T05:29:26;0.40;;;0.10;;
57605;SDS011;43430;48.204;11.556;2022-10-15T05:31:52;0.55;;;0.10;;
57605;SDS011;43430;48.204;11.556;2022-10-15T05:34:17;0.60;;;0.10;;
57605;SDS011;43430;48.204;11.556;2022-10-15T05:36:42;0.52;;;0.10;;
57605;SDS011;43430;48.204;11.556;2022-10-15T05:39:08;0.57;;;0.10;;
57605;SDS011;43430;48.204;11.556;2022-10-15T05:41:34;0.35;;;0.10;;
57605;SDS011;43430;48.204;11.556;2022-10-15T05:44:00;0.32;;;0.10;;
57605;SDS011;43430;48.204;11.556;2022-10-15T05:46:25;1.92;;;0.10;;
57605;SDS011;43430;48.204;11.556;2022-10-15T05:48:51;0.77;;;0.20;;
57605;SDS011;43430;48.204;11.556;2022-10-15T05:51:18;0.80;;;0.20;;
57605;SDS011;43430;48.204;11.556;2022-10-15T05:53:44;0.60;;;0.20;;
57605;SDS011;43430;48.204;11.556;2022-10-15T05:56:13;1.80;;;0.20;;
57605;SDS011;43430;48.204;11.556;2022-10-15T05:58:39;1.48;;;0.10;;
57605;SDS011;43430;48.204;11.556;2022-10-15T06:01:06;0.40;;;0.10;;
57605;SDS011;43430;48.204;11.556;2022-10-15T06:03:34;0.70;;;0.20;;
57605;SDS011;43430;48.204;11.556;2022-10-15T06:06:00;0.63;;;0.10;;
57605;SDS011;43430;48.204;11.556;2022-10-15T06:08:26;2.55;;;0.10;;
57605;SDS011;43430;48.204;11.556;2022-10-15T06:10:52;0.50;;;0.10;;
57605;SDS011;43430;48.204;11.556;2022-10-15T06:13:18;0.70;;;0.20;;
57605;SDS011;43430;48.204;11.556;2022-10-15T06:15:43;0.95;;;0.10;;
57605;SDS011;43430;48.204;11.556;2022-10-15T06:18:10;0.50;;;0.10;;
57605;SDS011;43430;48.204;11.556;2022-10-15T06:20:39;1.13;;;0.10;;
57605;SDS011;43430;48.204;11.556;2022-10-15T06:23:09;0.80;;;0.15;;
57605;SDS011;43430;48.204;11.556;2022-10-15T06:25:36;1.20;;;0.10;;
57605;SDS011;43430;48.204;11.556;2022-10-15T06:28:02;1.92;;;0.10;;
57605;SDS011;43430;48.204;11.556;2022-10-15T06:30:28;1.67;;;0.28;;
57605;SDS011;43430;48.204;11.556;2022-10-15T06:32:54;0.47;;;0.10;;
57605;SDS011;43430;48.204;11.556;2022-10-15T06:35:20;0.60;;;0.10;;
57605;SDS011;43430;48.204;11.556;2022-10-15T06:37:46;0.77;;;0.20;;
57605;SDS011;43430;48.204;11.556;2022-10-15T06:40:12;0.65;;;0.20;;
57605;SDS011;43430;48.204;11.556;2022-10-15T06:42:38;0.63;;;0.20;;
57605;SDS011;43430;48.204;11.556;2022-10-15T06:45:04;0.40;;;0.10;;
57605;SDS011;43430;48.204;11.556;2022-10-15T06:47:31;2.40;;;0.10;;
57605;SDS011;43430;48.204;11.556;2022-10-15T06:49:58;0.73;;;0.22;;
57605;SDS011;43430;48.204;11.556;2022-10-15T06:52:24;0.30;;;0.10;;
57605;SDS011;43430;48.204;11.556;2022-10-15T06:54:50;0.90;;;0.20;;
57605;SDS011;43430;48.204;11.556;2022-10-15T06:57:15;1.33;;;0.10;;
57605;SDS011;43430;48.204;11.556;2022-10-15T06:59:41;0.70;;;0.20;;
57605;SDS011;43430;48.204;11.556;2022-10-15T07:02:07;0.57;;;0.10;;
57605;SDS011;43430;48.204;11.556;2022-10-15T07:04:34;0.77;;;0.20;;
57605;SDS011;43430;48.204;11.556;2022-10-15T07:06:59;1.60;;;0.20;;
57605;SDS011;43430;48.204;11.556;2022-10-15T07:09:24;0.52;;;0.10;;
57605;SDS011;43430;48.204;11.556;2022-10-15T07:11:51;2.03;;;0.10;;
57605;SDS011;43430;48.204;11.556;2022-10-15T07:14:16;0.47;;;0.10;;
57605;SDS011;43430;48.204;11.556;2022-10-15T07:16:42;0.43;;;0.13;;
57605;SDS011;43430;48.204;11.556;2022-10-15T07:19:07;3.72;;;0.20;;
57605;SDS011;43430;48.204;11.556;2022-10-15T07:21:32;0.68;;;0.10;;
57605;SDS011;43430;48.204;11.556;2022-10-15T07:23:58;0.80;;;0.20;;
57605;SDS011;43430;48.204;11.556;2022-10-15T07:26:24;0.35;;;0.10;;
57605;SDS011;43430;48.204;11.556;2022-10-15T07:28:53;1.48;;;0.10;;
57605;SDS011;43430;48.204;11.556;2022-10-15T07:31:18;0.30;;;0.10;;
57605;SDS011;43430;48.204;11.556;2022-10-15T07:33:44;0.50;;;0.10;;
57605;SDS011;43430;48.204;11.556;2022-10-15T07:36:09;1.52;;;0.15;;
57605;SDS011;43430;48.204;11.556;2022-10-15T07:38:36;0.30;;;0.10;;
57605;SDS011;43430;48.204;11.556;2022-10-15T07:41:04;0.77;;;0.20;;
57605;SDS011;43430;48.204;11.556;2022-10-15T07:43:30;0.38;;;0.10;;
57605;SDS011;43430;48.204;11.556;2022-10-15T07:45:56;0.50;;;0.10;;
57605;SDS011;43430;48.204;11.556;2022-10-15T07:48:22;0.50;;;0.10;;
57605;SDS011;43430;48.204;11.556;2022-10-15T07:50:52;0.80;;;0.20;;
57605;SDS011;43430;48.204;11.556;2022-10-15T07:53:21;1.45;;;0.10;;
57605;SDS011;43430;48.204;11.556;2022-10-15T07:55:47;0.55;;;0.10;;
57605;SDS011;43430;48.204;11.556;2022-10-15T07:58:12;0.57;;;0.10;;
57605;SDS011;43430;48.204;11.556;2022-10-15T08:00:38;0.60;;;0.10;;
57605;SDS011;43430;48.204;11.556;2022-10-15T08:03:03;1.63;;;0.20;;
57605;SDS011;43430;48.204;11.556;2022-10-15T08:05:29;0.60;;;0.20;;
57605;SDS011;43430;48.204;11.556;2022-10-15T08:07:54;0.55;;;0.13;;
57605;SDS011;43430;48.204;11.556;2022-10-15T08:10:19;1.38;;;0.10;;
57605;SDS011;43430;48.204;11.556;2022-10-15T08:12:45;0.70;;;0.17;;
57605;SDS011;43430;48.204;11.556;2022-10-15T08:15:10;0.52;;;0.10;;
57605;SDS011;43430;48.204;11.556;2022-10-15T08:17:36;0.40;;;0.10;;
57605;SDS011;43430;48.204;11.556;2022-10-15T08:20:01;0.55;;;0.10;;
57605;SDS011;43430;48.204;11.556;2022-10-15T08:22:27;0.63;;;0.10;;
57605;SDS011;43430;48.204;11.556;2022-10-15T08:24:52;0.65;;;0.10;;
57605;SDS011;43430;48.204;11.556;2022-10-15T08:27:18;0.30;;;0.10;;
57605;SDS011;43430;48.204;11.556;2022-10-15T08:29:43;0.52;;;0.10;;
57605;SDS011;43430;48.204;11.556;2022-10-15T08:32:08;0.80;;;0.10;;
57605;SDS011;43430;48.204;11.556;2022-10-15T08:34:34;1.50;;;0.10;;
57605;SDS011;43430;48.204;11.556;2022-10-15T08:36:59;0.40;;;0.10;;
57605;SDS011;43430;48.204;11.556;2022-10-15T08:39:26;0.50;;;0.10;;
57605;SDS011;43430;48.204;11.556;2022-10-15T08:41:52;0.90;;;0.10;;
57605;SDS011;43430;48.204;11.556;2022-10-15T08:44:24;1.50;;;0.10;;
57605;SDS011;43430;48.204;11.556;2022-10-15T08:46:54;0.50;;;0.13;;
57605;SDS011;43430;48.204;11.556;2022-10-15T08:49:43;0.50;;;0.10;;
57605;SDS011;43430;48.204;11.556;2022-10-15T08:52:28;1.10;;;0.20;;
57605;SDS011;43430;48.204;11.556;2022-10-15T08:55:16;1.10;;;0.20;;
57605;SDS011;43430;48.204;11.556;2022-10-15T08:57:48;0.77;;;0.20;;
57605;SDS011;43430;48.204;11.556;2022-10-15T09:00:18;0.60;;;0.20;;
57605;SDS011;43430;48.204;11.556;2022-10-15T09:02:59;0.80;;;0.22;;
57605;SDS011;43430;48.204;11.556;2022-10-15T09:13:57;1.30;;;0.20;;
57605;SDS011;43430;48.204;11.556;2022-10-15T09:16:26;0.50;;;0.10;;
57605;SDS011;43430;48.204;11.556;2022-10-15T09:18:54;0.50;;;0.10;;
57605;SDS011;43430;48.204;11.556;2022-10-15T09:21:22;0.88;;;0.20;;
57605;SDS011;43430;48.204;11.556;2022-10-15T09:23:54;2.47;;;0.17;;
57605;SDS011;43430;48.204;11.556;2022-10-15T09:26:26;0.77;;;0.10;;
57605;SDS011;43430;48.204;11.556;2022-10-15T09:32:10;0.77;;;0.10;;
57605;SDS011;43430;48.204;11.556;2022-10-15T09:34:36;2.85;;;0.10;;
57605;SDS011;43430;48.204;11.556;2022-10-15T09:42:56;0.45;;;0.10;;
57605;SDS011;43430;48.204;11.556;2022-10-15T09:45:23;1.15;;;0.30;;
57605;SDS011;43430;48.204;11.556;2022-10-15T09:47:49;1.08;;;0.20;;
57605;SDS011;43430;48.204;11.556;2022-10-15T09:50:14;0.77;;;0.20;;
57605;SDS011;43430;48.204;11.556;2022-10-15T09:52:45;1.00;;;0.28;;
57605;SDS011;43430;48.204;11.556;2022-10-15T09:58:12;1.13;;;0.30;;
57605;SDS011;43430;48.204;11.556;2022-10-15T10:03:18;0.50;;;0.13;;
57605;SDS011;43430;48.204;11.556;2022-10-15T10:05:46;0.80;;;0.20;;
57605;SDS011;43430;48.204;11.556;2022-10-15T10:08:20;1.35;;;0.20;;
57605;SDS011;43430;48.204;11.556;2022-10-15T10:10:56;2.13;;;0.20;;
57605;SDS011;43430;48.204;11.556;2022-10-15T10:13:29;1.73;;;0.20;;
57605;SDS011;43430;48.204;11.556;2022-10-15T10:16:00;0.90;;;0.40;;
57605;SDS011;43430;48.204;11.556;2022-10-15T10:18:28;0.63;;;0.30;;
57605;SDS011;43430;48.204;11.556;2022-10-15T10:20:59;1.55;;;0.50;;
57605;SDS011;43430;48.204;11.556;2022-10-15T10:26:01;1.65;;;0.30;;
57605;SDS011;43430;48.204;11.556;2022-10-15T10:28:30;1.08;;;0.20;;
57605;SDS011;43430;48.204;11.556;2022-10-15T10:31:00;0.98;;;0.20;;
57605;SDS011;43430;48.204;11.556;2022-10-15T10:33:41;1.35;;;0.40;;
57605;SDS011;43430;48.204;11.556;2022-10-15T10:39:33;2.08;;;0.40;;
57605;SDS011;43430;48.204;11.556;2022-10-15T10:41:55;0.90;;;0.30;;
57605;SDS011;43430;48.204;11.556;2022-10-15T10:44:36;1.50;;;0.30;;
57605;SDS011;43430;48.204;11.556;2022-10-15T11:00:23;0.70;;;0.20;;
57605;SDS011;43430;48.204;11.556;2022-10-15T11:02:50;0.77;;;0.30;;
57605;SDS011;43430;48.204;11.556;2022-10-15T11:05:19;1.67;;;0.20;;
57605;SDS011;43430;48.204;11.556;2022-10-15T11:13:59;1.10;;;0.20;;
57605;SDS011;43430;48.204;11.556;2022-10-15T11:16:57;0.85;;;0.30;;
57605;SDS011;43430;48.204;11.556;2022-10-15T11:22:36;2.70;;;0.30;;
57605;SDS011;43430;48.204;11.556;2022-10-15T11:25:37;0.57;;;0.20;;
57605;SDS011;43430;48.204;11.556;2022-10-15T11:28:33;2.03;;;0.30;;
57605;SDS011;43430;48.204;11.556;2022-10-15T11:42:57;1.08;;;0.30;;
57605;SDS011;43430;48.204;11.556;2022-10-15T11:49:12;2.90;;;0.20;;
57605;SDS011;43430;48.204;11.556;2022-10-15T11:51:23;2.67;;;0.30;;
57605;SDS011;43430;48.204;11.556;2022-10-15T11:54:10;0.57;;;0.22;;
57605;SDS011;43430;48.204;11.556;2022-10-15T11:56:47;0.90;;;0.40;;
57605;SDS011;43430;48.204;11.556;2022-10-15T11:59:50;1.30;;;0.20;;
57605;SDS011;43430;48.204;11.556;2022-10-15T12:02:19;2.72;;;0.38;;
57605;SDS011;43430;48.204;11.556;2022-10-15T12:04:52;0.88;;;0.20;;
57605;SDS011;43430;48.204;11.556;2022-10-15T12:07:43;1.67;;;0.38;;
57605;SDS011;43430;48.204;11.556;2022-10-15T12:12:52;1.67;;;0.70;;
57605;SDS011;43430;48.204;11.556;2022-10-15T12:20:27;2.13;;;0.47;;
57605;SDS011;43430;48.204;11.556;2022-10-15T12:22:55;2.60;;;0.45;;
57605;SDS011;43430;48.204;11.556;2022-10-15T12:28:02;1.63;;;0.35;;
57605;SDS011;43430;48.204;11.556;2022-10-15T12:30:37;1.48;;;0.20;;
57605;SDS011;43430;48.204;11.556;2022-10-15T12:33:20;1.25;;;0.20;;
57605;SDS011;43430;48.204;11.556;2022-10-15T12:38:41;1.42;;;0.20;;
57605;SDS011;43430;48.204;11.556;2022-10-15T12:41:20;2.45;;;0.50;;
57605;SDS011;43430;48.204;11.556;2022-10-15T12:44:03;1.02;;;0.22;;
57605;SDS011;43430;48.204;11.556;2022-10-15T12:46:36;1.00;;;0.30;;
57605;SDS011;43430;48.204;11.556;2022-10-15T12:51:50;0.85;;;0.30;;
57605;SDS011;43430;48.204;11.556;2022-10-15T12:59:55;2.15;;;0.28;;
57605;SDS011;43430;48.204;11.556;2022-10-15T13:05:03;0.70;;;0.30;;
57605;SDS011;43430;48.204;11.556;2022-10-15T13:07:31;5.82;;;0.40;;
57605;SDS011;43430;48.204;11.556;2022-10-15T13:09:58;1.05;;;0.20;;
57605;SDS011;43430;48.204;11.556;2022-10-15T13:12:26;3.90;;;0.30;;
57605;SDS011;43430;48.204;11.556;2022-10-15T13:14:57;1.42;;;0.20;;
57605;SDS011;43430;48.204;11.556;2022-10-15T13:17:28;0.70;;;0.20;;
57605;SDS011;43430;48.204;11.556;2022-10-15T13:19:58;0.90;;;0.20;;
57605;SDS011;43430;48.204;11.556;2022-10-15T13:22:28;0.63;;;0.25;;
57605;SDS011;43430;48.204;11.556;2022-10-15T13:24:55;1.70;;;0.20;;
57605;SDS011;43430;48.204;11.556;2022-10-15T13:27:32;1.05;;;0.30;;
57605;SDS011;43430;48.204;11.556;2022-10-15T13:30:11;1.52;;;0.45;;
57605;SDS011;43430;48.204;11.556;2022-10-15T13:32:45;1.05;;;0.22;;
57605;SDS011;43430;48.204;11.556;2022-10-15T13:35:17;1.52;;;0.20;;
57605;SDS011;43430;48.204;11.556;2022-10-15T13:37:44;0.73;;;0.32;;
57605;SDS011;43430;48.204;11.556;2022-10-15T13:40:17;0.68;;;0.28;;
57605;SDS011;43430;48.204;11.556;2022-10-15T13:43:00;3.08;;;0.30;;
57605;SDS011;43430;48.204;11.556;2022-10-15T13:45:31;1.00;;;0.30;;
57605;SDS011;43430;48.204;11.556;2022-10-15T13:47:57;1.70;;;0.40;;
57605;SDS011;43430;48.204;11.556;2022-10-15T13:50:23;2.05;;;0.40;;
57605;SDS011;43430;48.204;11.556;2022-10-15T13:52:55;0.95;;;0.25;;
57605;SDS011;43430;48.204;11.556;2022-10-15T13:55:25;1.77;;;0.30;;
57605;SDS011;43430;48.204;11.556;2022-10-15T14:00:58;0.88;;;0.30;;
57605;SDS011;43430;48.204;11.556;2022-10-15T14:03:30;0.63;;;0.38;;
57605;SDS011;43430;48.204;11.556;2022-10-15T14:05:57;1.60;;;0.38;;
57605;SDS011;43430;48.204;11.556;2022-10-15T14:08:33;4.70;;;0.40;;
57605;SDS011;43430;48.204;11.556;2022-10-15T14:11:00;3.22;;;0.43;;
57605;SDS011;43430;48.204;11.556;2022-10-15T14:13:26;2.67;;;0.40;;
57605;SDS011;43430;48.204;11.556;2022-10-15T14:18:37;1.65;;;0.38;;
57605;SDS011;43430;48.204;11.556;2022-10-15T14:21:15;0.82;;;0.40;;
57605;SDS011;43430;48.204;11.556;2022-10-15T14:23:43;1.02;;;0.20;;
57605;SDS011;43430;48.204;11.556;2022-10-15T14:26:10;0.63;;;0.30;;
57605;SDS011;43430;48.204;11.556;2022-10-15T14:28:36;2.60;;;0.30;;
57605;SDS011;43430;48.204;11.556;2022-10-15T14:31:03;0.85;;;0.20;;
57605;SDS011;43430;48.204;11.556;2022-10-15T14:33:38;1.65;;;0.30;;
57605;SDS011;43430;48.204;11.556;2022-10-15T14:36:12;1.08;;;0.30;;
57605;SDS011;43430;48.204;11.556;2022-10-15T14:38:52;1.85;;;0.30;;
57605;SDS011;43430;48.204;11.556;2022-10-15T14:41:23;1.55;;;0.40;;
57605;SDS011;43430;48.204;11.556;2022-10-15T14:46:38;2.58;;;0.40;;
57605;SDS011;43430;48.204;11.556;2022-10-15T14:49:15;0.85;;;0.30;;
57605;SDS011;43430;48.204;11.556;2022-10-15T14:51:44;1.55;;;0.40;;
57605;SDS011;43430;48.204;11.556;2022-10-15T14:54:17;1.23;;;0.45;;
57605;SDS011;43430;48.204;11.556;2022-10-15T14:56:45;1.17;;;0.30;;
57605;SDS011;43430;48.204;11.556;2022-10-15T14:59:15;1.13;;;0.38;;
57605;SDS011;43430;48.204;11.556;2022-10-15T15:01:53;2.47;;;0.32;;
57605;SDS011;43430;48.204;11.556;2022-10-15T15:04:34;0.90;;;0.40;;
57605;SDS011;43430;48.204;11.556;2022-10-15T15:07:14;1.33;;;0.28;;
57605;SDS011;43430;48.204;11.556;2022-10-15T15:09:45;1.50;;;0.40;;
57605;SDS011;43430;48.204;11.556;2022-10-15T15:12:13;1.00;;;0.57;;
57605;SDS011;43430;48.204;11.556;2022-10-15T15:14:41;1.08;;;0.40;;
57605;SDS011;43430;48.204;11.556;2022-10-15T15:17:08;1.13;;;0.30;;
57605;SDS011;43430;48.204;11.556;2022-10-15T15:19:38;1.40;;;0.35;;
57605;SDS011;43430;48.204;11.556;2022-10-15T15:22:04;1.65;;;0.63;;
57605;SDS011;43430;48.204;11.556;2022-10-15T15:24:29;1.77;;;0.70;;
57605;SDS011;43430;48.204;11.556;2022-10-15T15:26:54;3.10;;;0.57;;
57605;SDS011;43430;48.204;11.556;2022-10-15T15:29:20;1.85;;;0.50;;
57605;SDS011;43430;48.204;11.556;2022-10-15T15:31:46;1.20;;;0.43;;
57605;SDS011;43430;48.204;11.556;2022-10-15T15:34:11;1.52;;;0.50;;
57605;SDS011;43430;48.204;11.556;2022-10-15T15:36:37;2.45;;;0.50;;
57605;SDS011;43430;48.204;11.556;2022-10-15T15:39:02;2.03;;;0.45;;
57605;SDS011;43430;48.204;11.556;2022-10-15T15:41:27;2.47;;;0.57;;
57605;SDS011;43430;48.204;11.556;2022-10-15T15:43:53;2.90;;;0.60;;
57605;SDS011;43430;48.204;11.556;2022-10-15T15:46:21;3.17;;;0.82;;
57605;SDS011;43430;48.204;11.556;2022-10-15T15:48:46;2.13;;;0.65;;
57605;SDS011;43430;48.204;11.556;2022-10-15T15:53:43;3.40;;;0.55;;
57605;SDS011;43430;48.204;11.556;2022-10-15T15:56:08;1.73;;;0.63;;
57605;SDS011;43430;48.204;11.556;2022-10-15T15:58:33;1.80;;;0.50;;
57605;SDS011;43430;48.204;11.556;2022-10-15T16:00:59;2.47;;;0.65;;
57605;SDS011;43430;48.204;11.556;2022-10-15T16:03:24;2.83;;;0.47;;
57605;SDS011;43430;48.204;11.556;2022-10-15T16:05:49;2.25;;;0.68;;
57605;SDS011;43430;48.204;11.556;2022-10-15T16:08:16;2.10;;;0.63;;
57605;SDS011;43430;48.204;11.556;2022-10-15T16:10:41;1.85;;;0.40;;
57605;SDS011;43430;48.204;11.556;2022-10-15T16:13:07;4.53;;;1.05;;
57605;SDS011;43430;48.204;11.556;2022-10-15T16:15:32;2.72;;;0.60;;
57605;SDS011;43430;48.204;11.556;2022-10-15T16:17:58;1.67;;;0.68;;
57605;SDS011;43430;48.204;11.556;2022-10-15T16:20:23;2.78;;;0.80;;
57605;SDS011;43430;48.204;11.556;2022-10-15T16:22:51;2.15;;;0.60;;
57605;SDS011;43430;48.204;11.556;2022-10-15T16:25:18;2.25;;;0.70;;
57605;SDS011;43430;48.204;11.556;2022-10-15T16:27:44;1.55;;;0.63;;
57605;SDS011;43430;48.204;11.556;2022-10-15T16:30:12;1.73;;;0.70;;
57605;SDS011;43430;48.204;11.556;2022-10-15T16:32:38;2.03;;;0.52;;
57605;SDS011;43430;48.204;11.556;2022-10-15T16:35:04;1.50;;;0.63;;
57605;SDS011;43430;48.204;11.556;2022-10-15T16:37:29;2.88;;;0.68;;
57605;SDS011;43430;48.204;11.556;2022-10-15T16:39:55;3.00;;;0.57;;
57605;SDS011;43430;48.204;11.556;2022-10-15T16:42:21;2.53;;;0.50;;
57605;SDS011;43430;48.204;11.556;2022-10-15T16:44:46;3.50;;;0.52;;
57605;SDS011;43430;48.204;11.556;2022-10-15T16:47:11;2.42;;;0.70;;